Time;durP1;ratioP1;P1;durP2;ratioP2;P2;SDS_P1;SDS_P2;PMS_P1;PMS_P2;Temp;Humidity;BMP_temperature;BMP_pressure;BME280_temperature;BME280_humidity;BME280_pressure;Samples;Min_cycle;Max_cycle;Signal;HPM_P1;HPM_P2
2023/05/19 00:01:59;;;;;;;180.88;172.55;;;7.50;99.90;;;;;;5004228;28;20093;-74
2023/05/19 00:04:25;;;;;;;205.35;195.90;;;7.50;99.90;;;;;;4987099;28;20092;-74
2023/05/19 00:06:53;;;;;;;204.27;195.07;;;7.40;99.90;;;;;;4973007;28;20437;-74
2023/05/19 00:09:19;;;;;;;197.88;189.38;;;7.40;99.90;;;;;;4987594;28;20434;-74
2023/05/19 00:11:45;;;;;;;167.13;159.35;;;7.30;99.90;;;;;;4988138;28;20124;-74
2023/05/19 00:14:11;;;;;;;183.68;175.30;;;7.30;99.90;;;;;;4986242;28;20573;-73
2023/05/19 00:16:37;;;;;;;148.85;141.85;;;7.30;99.90;;;;;;4972265;28;20129;-73
2023/05/19 00:19:05;;;;;;;150.18;143.20;;;7.20;99.90;;;;;;4986735;28;20042;-74
2023/05/19 00:21:31;;;;;;;140.85;133.95;;;7.20;99.90;;;;;;4986637;28;20093;-74
2023/05/19 00:23:57;;;;;;;147.30;140.48;;;7.10;99.90;;;;;;4987892;28;20141;-74
2023/05/19 00:26:23;;;;;;;179.38;170.60;;;7.10;99.90;;;;;;4987521;28;20034;-74
2023/05/19 00:28:49;;;;;;;169.02;160.65;;;7.20;99.90;;;;;;4986434;28;20038;-74
2023/05/19 00:31:15;;;;;;;193.75;184.95;;;7.10;99.90;;;;;;4983529;28;20050;-74
2023/05/19 00:33:41;;;;;;;163.35;155.48;;;7.10;99.90;;;;;;4987622;28;20076;-74
2023/05/19 00:36:07;;;;;;;153.85;146.48;;;7.10;99.90;;;;;;4968829;28;20125;-74
2023/05/19 00:38:34;;;;;;;170.55;162.65;;;7.10;99.90;;;;;;4986671;28;20046;-74
2023/05/19 00:41:01;;;;;;;156.63;149.65;;;7.10;99.90;;;;;;4990271;28;20052;-74
2023/05/19 00:43:28;;;;;;;125.35;119.38;;;7.00;99.90;;;;;;4974784;28;20053;-74
2023/05/19 00:45:55;;;;;;;110.05;104.63;;;7.00;99.90;;;;;;4988130;28;20034;-74
2023/05/19 00:48:21;;;;;;;172.13;163.60;;;7.00;99.90;;;;;;4986990;28;20056;-74
2023/05/19 00:50:48;;;;;;;128.25;122.05;;;7.00;99.90;;;;;;4971011;28;20061;-74
2023/05/19 00:53:16;;;;;;;191.90;182.98;;;6.90;99.90;;;;;;4987707;28;20046;-74
2023/05/19 00:55:42;;;;;;;126.60;120.55;;;6.90;99.90;;;;;;4986209;28;20049;-73
2023/05/19 00:58:09;;;;;;;167.73;160.23;;;6.90;99.90;;;;;;4988681;28;20517;-74
2023/05/19 01:00:35;;;;;;;131.95;125.15;;;6.80;99.90;;;;;;4985071;28;20461;-73
2023/05/19 01:03:02;;;;;;;131.30;124.88;;;6.80;99.90;;;;;;4987025;28;20055;-74
2023/05/19 01:05:27;;;;;;;166.18;157.52;;;6.80;99.90;;;;;;4987138;28;20543;-73
2023/05/19 01:07:55;;;;;;;146.27;139.05;;;6.80;99.90;;;;;;4986766;28;20145;-74
2023/05/19 01:10:21;;;;;;;132.20;125.82;;;6.80;99.90;;;;;;4986091;28;20042;-73
2023/05/19 01:12:47;;;;;;;133.13;126.50;;;6.80;99.90;;;;;;4987043;28;20038;-74
2023/05/19 01:15:14;;;;;;;147.57;140.52;;;6.70;99.90;;;;;;4986115;28;20042;-73
2023/05/19 01:17:58;;;;;;;135.40;128.82;;;6.80;99.90;;;;;;4988385;28;20045;-73
2023/05/19 01:20:37;;;;;;;103.60;98.18;;;6.70;99.90;;;;;;4986464;28;20046;-73
2023/05/19 01:24:00;;;;;;;98.63;93.03;;;6.70;99.90;;;;;;4986986;28;20070;-73
2023/05/19 01:26:44;;;;;;;85.97;81.05;;;6.70;99.90;;;;;;5003605;28;20053;-73
2023/05/19 01:29:25;;;;;;;91.50;86.88;;;6.60;99.90;;;;;;4992479;28;20075;-73
2023/05/19 01:31:54;;;;;;;79.32;75.15;;;6.60;99.90;;;;;;5006629;28;20058;-73
2023/05/19 01:34:22;;;;;;;92.88;88.07;;;6.60;99.90;;;;;;4992044;28;20136;-73
2023/05/19 01:36:49;;;;;;;91.63;86.72;;;6.50;99.90;;;;;;5010828;28;20048;-74
2023/05/19 01:39:15;;;;;;;99.38;94.50;;;6.50;99.90;;;;;;4997161;28;20046;-73
2023/05/19 01:41:44;;;;;;;99.25;94.15;;;6.60;99.90;;;;;;5008933;28;20059;-73
2023/05/19 01:44:10;;;;;;;107.57;101.82;;;6.60;99.90;;;;;;5008196;28;20541;-73
2023/05/19 01:46:37;;;;;;;117.53;111.35;;;6.60;99.90;;;;;;5008471;28;20392;-73
2023/05/19 01:49:05;;;;;;;115.80;110.20;;;6.60;99.90;;;;;;5022308;28;20419;-73
2023/05/19 01:51:30;;;;;;;105.60;100.35;;;6.60;99.90;;;;;;4984110;28;20603;-73
2023/05/19 01:53:56;;;;;;;116.43;110.75;;;6.60;99.90;;;;;;5024460;28;20045;-73
2023/05/19 01:56:37;;;;;;;127.18;120.63;;;6.60;99.90;;;;;;4978664;28;20090;-73
2023/05/19 01:59:19;;;;;;;119.35;113.50;;;6.70;99.90;;;;;;4986321;28;20050;-73
2023/05/19 02:01:51;;;;;;;115.53;109.00;;;6.70;99.90;;;;;;4984800;28;20057;-73
2023/05/19 02:04:34;;;;;;;119.40;113.38;;;6.80;99.90;;;;;;4986196;28;20049;-73
2023/05/19 02:07:16;;;;;;;122.93;116.43;;;6.80;99.90;;;;;;4985820;28;20202;-73
2023/05/19 02:10:03;;;;;;;107.13;101.85;;;6.70;99.90;;;;;;4968234;28;20377;-73
2023/05/19 02:12:40;;;;;;;95.32;90.03;;;6.70;99.90;;;;;;4985179;28;20042;-73
2023/05/19 02:15:17;;;;;;;93.53;88.97;;;6.70;99.90;;;;;;4985085;28;20053;-73
2023/05/19 02:17:49;;;;;;;103.68;98.18;;;6.60;99.90;;;;;;4986135;28;20165;-73
2023/05/19 02:20:15;;;;;;;94.72;90.10;;;6.60;99.90;;;;;;4984584;28;20038;-73
2023/05/19 02:22:41;;;;;;;113.03;107.03;;;6.60;99.90;;;;;;4985780;28;20042;-73
2023/05/19 02:25:07;;;;;;;109.35;103.88;;;6.60;99.90;;;;;;4967877;28;20042;-73
2023/05/19 02:27:35;;;;;;;148.43;140.88;;;6.60;99.90;;;;;;4985504;28;20581;-73
2023/05/19 02:30:01;;;;;;;122.00;115.43;;;6.60;99.90;;;;;;4982512;28;20454;-73
2023/05/19 02:32:26;;;;;;;103.53;98.25;;;6.50;99.90;;;;;;4986600;28;20042;-73
2023/05/19 02:34:52;;;;;;;118.20;112.38;;;6.50;99.90;;;;;;4980466;28;20053;-73
2023/05/19 02:37:17;;;;;;;117.57;111.35;;;6.50;99.90;;;;;;4989824;28;20054;-73
2023/05/19 02:39:43;;;;;;;128.35;121.72;;;6.50;99.90;;;;;;4986004;28;20038;-73
2023/05/19 02:42:11;;;;;;;114.65;108.88;;;6.50;99.90;;;;;;4985676;28;20081;-73
2023/05/19 02:44:36;;;;;;;115.38;109.55;;;6.50;99.90;;;;;;4985264;28;20046;-73
2023/05/19 02:47:02;;;;;;;117.95;111.88;;;6.50;99.90;;;;;;4985845;28;20047;-73
2023/05/19 02:49:34;;;;;;;98.10;92.85;;;6.50;99.90;;;;;;4985043;28;20506;-73
2023/05/19 02:52:01;;;;;;;101.07;95.20;;;6.40;99.90;;;;;;4983745;28;20050;-74
2023/05/19 02:54:27;;;;;;;112.95;106.72;;;6.50;99.90;;;;;;4986170;28;20121;-73
2023/05/19 02:56:52;;;;;;;173.00;164.23;;;6.50;99.90;;;;;;4983255;28;20180;-73
2023/05/19 02:59:18;;;;;;;123.57;117.10;;;6.40;99.90;;;;;;4985696;28;20513;-74
2023/05/19 03:01:44;;;;;;;152.80;144.70;;;6.50;99.90;;;;;;4968136;28;20043;-74
2023/05/19 03:04:10;;;;;;;99.60;94.05;;;6.50;99.90;;;;;;4985468;28;20077;-73
2023/05/19 03:06:37;;;;;;;91.35;86.50;;;6.50;99.90;;;;;;4985671;28;20130;-73
2023/05/19 03:09:03;;;;;;;92.63;87.32;;;6.50;99.90;;;;;;4983539;28;20054;-73
2023/05/19 03:11:29;;;;;;;87.38;82.80;;;6.40;99.90;;;;;;4986346;28;20387;-73
2023/05/19 03:13:55;;;;;;;88.35;82.63;;;6.40;99.90;;;;;;4985832;28;20050;-74
2023/05/19 03:16:20;;;;;;;90.43;84.97;;;6.40;99.90;;;;;;4984008;28;20038;-74
2023/05/19 03:18:46;;;;;;;87.75;83.00;;;6.40;99.90;;;;;;4986833;28;20505;-74
2023/05/19 03:21:12;;;;;;;86.13;80.65;;;6.30;99.90;;;;;;4985192;28;20060;-74
2023/05/19 03:23:37;;;;;;;87.32;82.03;;;6.30;99.90;;;;;;4984080;28;20418;-74
2023/05/19 03:26:03;;;;;;;107.95;101.97;;;6.30;99.90;;;;;;4984656;28;20077;-74
2023/05/19 03:28:28;;;;;;;127.70;121.43;;;6.30;99.90;;;;;;4985090;28;20462;-74
2023/05/19 03:30:54;;;;;;;134.77;127.53;;;6.30;99.90;;;;;;4980930;28;20474;-74
2023/05/19 03:33:20;;;;;;;127.45;121.20;;;6.40;99.90;;;;;;4989097;28;20049;-74
2023/05/19 03:35:45;;;;;;;123.57;117.15;;;6.40;99.90;;;;;;4988908;28;20557;-74
2023/05/19 03:38:11;;;;;;;101.95;96.15;;;6.40;99.90;;;;;;4974109;28;20457;-74
2023/05/19 03:40:37;;;;;;;90.32;85.18;;;6.40;99.90;;;;;;4989862;28;20125;-74
2023/05/19 03:43:02;;;;;;;93.18;88.43;;;6.40;99.90;;;;;;4977586;28;20042;-74
2023/05/19 03:45:28;;;;;;;130.43;124.07;;;6.40;99.90;;;;;;4987727;28;20510;-74
2023/05/19 03:47:54;;;;;;;155.60;147.85;;;6.40;99.90;;;;;;4988059;28;20483;-74
2023/05/19 03:50:20;;;;;;;158.55;150.88;;;6.40;99.90;;;;;;4987131;28;20569;-74
2023/05/19 03:52:46;;;;;;;174.48;165.93;;;6.50;99.90;;;;;;4989548;28;20056;-74
2023/05/19 03:55:15;;;;;;;185.40;175.80;;;6.50;99.90;;;;;;4989039;28;20145;-74
2023/05/19 03:57:42;;;;;;;137.88;130.93;;;6.50;99.90;;;;;;4986909;28;20084;-74
2023/05/19 04:00:10;;;;;;;150.07;142.45;;;6.50;99.90;;;;;;4971230;28;20363;-74
2023/05/19 04:02:35;;;;;;;128.35;120.90;;;6.50;99.90;;;;;;4985456;28;20090;-75
2023/05/19 04:05:03;;;;;;;106.30;100.28;;;6.50;99.90;;;;;;5001589;28;20609;-74
2023/05/19 04:07:30;;;;;;;90.88;85.97;;;6.50;99.90;;;;;;4988526;28;20050;-75
2023/05/19 04:09:56;;;;;;;119.95;113.22;;;6.60;99.90;;;;;;4988825;28;20070;-75
2023/05/19 04:12:21;;;;;;;89.00;84.45;;;6.60;99.90;;;;;;4971126;28;20049;-74
2023/05/19 04:14:47;;;;;;;108.95;103.15;;;6.60;99.90;;;;;;4987868;28;20050;-74
2023/05/19 04:17:13;;;;;;;131.65;125.13;;;6.80;99.90;;;;;;4987705;28;20037;-74
2023/05/19 04:19:39;;;;;;;137.82;131.05;;;6.90;99.90;;;;;;4985318;28;20113;-74
2023/05/19 04:22:04;;;;;;;101.88;96.68;;;7.00;99.90;;;;;;4986304;28;20438;-74
2023/05/19 04:24:30;;;;;;;98.78;93.47;;;7.00;99.90;;;;;;4988533;28;20038;-74
2023/05/19 04:27:01;;;;;;;88.70;83.68;;;7.00;99.90;;;;;;4989065;28;20049;-74
2023/05/19 04:29:29;;;;;;;82.65;77.72;;;7.00;99.90;;;;;;4981842;28;20520;-74
2023/05/19 04:31:56;;;;;;;96.75;91.50;;;7.00;99.90;;;;;;4988408;28;20438;-74
2023/05/19 04:34:21;;;;;;;118.28;112.10;;;7.10;99.90;;;;;;4986225;28;20054;-74
2023/05/19 04:36:47;;;;;;;118.72;112.20;;;7.10;99.90;;;;;;4988818;28;20068;-74
2023/05/19 04:39:14;;;;;;;128.52;121.70;;;7.10;99.90;;;;;;4971571;28;20069;-74
2023/05/19 04:41:40;;;;;;;138.50;131.88;;;7.30;99.90;;;;;;4971267;28;20321;-74
2023/05/19 04:44:07;;;;;;;148.30;140.70;;;7.30;99.90;;;;;;4986865;28;20499;-74
2023/05/19 04:46:33;;;;;;;147.60;140.40;;;7.40;99.90;;;;;;4974886;28;20045;-74
2023/05/19 04:49:00;;;;;;;168.10;159.32;;;7.50;99.90;;;;;;4986545;28;20470;-74
2023/05/19 04:51:27;;;;;;;161.95;153.77;;;7.60;99.90;;;;;;4988615;28;20083;-74
2023/05/19 04:53:54;;;;;;;180.85;172.07;;;7.80;99.90;;;;;;4987346;28;20057;-73
2023/05/19 04:56:20;;;;;;;197.52;187.60;;;7.90;99.90;;;;;;4989177;28;20422;-74
2023/05/19 04:58:46;;;;;;;190.20;180.45;;;8.30;99.90;;;;;;4986517;28;20038;-74
2023/05/19 05:01:12;;;;;;;169.43;161.00;;;8.50;99.90;;;;;;4987317;28;20576;-74
2023/05/19 05:03:38;;;;;;;154.32;146.27;;;8.60;99.90;;;;;;4986575;28;20096;-74
2023/05/19 05:06:05;;;;;;;192.10;183.30;;;8.60;99.90;;;;;;4983940;28;20542;-74
2023/05/19 05:08:31;;;;;;;162.23;154.25;;;8.60;99.90;;;;;;4987503;28;20093;-74
2023/05/19 05:10:57;;;;;;;152.93;145.57;;;8.80;99.90;;;;;;4987171;28;20042;-74
2023/05/19 05:13:23;;;;;;;217.38;204.23;;;8.80;99.90;;;;;;4985212;28;20321;-74
2023/05/19 05:15:51;;;;;;;196.45;185.30;;;8.90;99.90;;;;;;4986490;28;20057;-74
2023/05/19 05:18:17;;;;;;;177.77;169.25;;;9.00;99.90;;;;;;4988126;28;20053;-74
2023/05/19 05:20:43;;;;;;;157.68;149.27;;;9.10;99.90;;;;;;4989085;28;20046;-74
2023/05/19 05:23:13;;;;;;;180.07;170.38;;;9.20;99.90;;;;;;4973215;28;20121;-74
2023/05/19 05:25:40;;;;;;;99.35;93.93;;;9.30;99.90;;;;;;4985653;28;20069;-74
2023/05/19 05:28:06;;;;;;;84.55;79.75;;;9.50;99.90;;;;;;4986190;28;20034;-73
2023/05/19 05:30:33;;;;;;;77.18;72.95;;;9.60;99.90;;;;;;4984529;28;20091;-74
2023/05/19 05:32:59;;;;;;;77.93;73.18;;;9.90;99.90;;;;;;4983572;28;20081;-74
2023/05/19 05:35:25;;;;;;;78.00;73.10;;;10.70;99.90;;;;;;4983392;28;20038;-74
2023/05/19 05:37:50;;;;;;;48.50;44.92;;;11.60;99.90;;;;;;4993203;28;20034;-74
2023/05/19 05:40:16;;;;;;;61.42;57.55;;;12.40;99.90;;;;;;4962994;28;20494;-74
2023/05/19 05:42:42;;;;;;;52.03;48.78;;;13.10;99.90;;;;;;4988869;28;20051;-74
2023/05/19 05:45:08;;;;;;;44.75;41.55;;;13.10;99.90;;;;;;4986287;28;20038;-74
2023/05/19 05:47:36;;;;;;;44.20;41.10;;;13.00;99.90;;;;;;4985780;28;20069;-74
2023/05/19 05:50:03;;;;;;;39.03;36.25;;;13.00;99.90;;;;;;4986945;28;20050;-74
2023/05/19 05:52:31;;;;;;;36.92;34.20;;;13.20;99.90;;;;;;4986973;28;20485;-74
2023/05/19 05:54:57;;;;;;;38.40;35.00;;;13.60;99.90;;;;;;4969061;28;20070;-74
2023/05/19 05:57:22;;;;;;;45.70;42.60;;;14.10;99.90;;;;;;4985269;28;20046;-74
2023/05/19 05:59:49;;;;;;;40.75;38.20;;;14.90;99.90;;;;;;4988779;28;20049;-74
2023/05/19 06:02:18;;;;;;;38.03;35.42;;;15.50;99.90;;;;;;4985551;28;20054;-75
2023/05/19 06:04:43;;;;;;;57.75;54.20;;;16.00;99.90;;;;;;4985519;28;20049;-74
2023/05/19 06:07:09;;;;;;;82.43;77.95;;;16.30;99.90;;;;;;4983512;28;20520;-75
2023/05/19 06:09:35;;;;;;;81.47;77.07;;;16.80;99.90;;;;;;4982654;28;20038;-74
2023/05/19 06:12:00;;;;;;;88.07;83.78;;;17.10;99.90;;;;;;4986150;28;20046;-74
2023/05/19 06:14:26;;;;;;;146.38;139.55;;;17.40;99.90;;;;;;4978815;28;20125;-75
2023/05/19 06:16:52;;;;;;;179.95;171.68;;;17.50;99.90;;;;;;4986667;28;20478;-75
2023/05/19 06:19:18;;;;;;;141.07;134.52;;;17.80;99.90;;;;;;4986732;28;20046;-75
2023/05/19 06:21:44;;;;;;;238.25;227.77;;;18.20;99.90;;;;;;4986330;28;20050;-75
2023/05/19 06:24:10;;;;;;;224.95;215.18;;;18.70;99.90;;;;;;4985916;28;20054;-75
2023/05/19 06:26:36;;;;;;;198.00;189.60;;;18.60;99.90;;;;;;4987481;28;20042;-75
2023/05/19 06:29:02;;;;;;;144.23;137.65;;;18.10;99.90;;;;;;4985307;28;20044;-75
2023/05/19 06:31:27;;;;;;;161.18;154.02;;;17.80;99.90;;;;;;4986861;28;20502;-75
2023/05/19 06:33:53;;;;;;;145.65;139.02;;;18.00;99.90;;;;;;4986874;28;20074;-75
2023/05/19 06:36:19;;;;;;;130.38;124.28;;;18.40;99.90;;;;;;4985883;28;20042;-74
2023/05/19 06:38:44;;;;;;;89.72;85.60;;;18.80;99.90;;;;;;4991176;28;20101;-74
2023/05/19 06:41:11;;;;;;;149.55;142.70;;;18.90;99.90;;;;;;4986768;28;20046;-75
2023/05/19 06:43:37;;;;;;;115.47;109.93;;;19.60;99.90;;;;;;4985344;28;20038;-75
2023/05/19 06:46:03;;;;;;;146.90;140.50;;;19.80;99.90;;;;;;4986786;28;20046;-75
2023/05/19 06:48:29;;;;;;;74.13;69.32;;;20.00;99.90;;;;;;4984540;28;20049;-75
2023/05/19 06:50:55;;;;;;;61.75;58.55;;;20.40;99.90;;;;;;4969197;28;20093;-75
2023/05/19 06:53:21;;;;;;;37.28;35.15;;;20.90;99.90;;;;;;4986453;28;20637;-74
2023/05/19 06:55:49;;;;;;;39.50;36.92;;;21.30;99.90;;;;;;4986230;28;20407;-74
2023/05/19 06:58:15;;;;;;;121.10;115.55;;;21.30;99.90;;;;;;4969324;28;20042;-74
2023/05/19 07:00:42;;;;;;;153.13;146.45;;;21.50;97.70;;;;;;4984116;28;20065;-75
2023/05/19 07:03:07;;;;;;;163.50;156.05;;;21.40;96.10;;;;;;4983592;28;20070;-74
2023/05/19 07:05:33;;;;;;;95.15;90.65;;;21.10;95.10;;;;;;4985903;28;20042;-73
2023/05/19 07:07:59;;;;;;;153.80;146.98;;;20.90;94.80;;;;;;4989427;28;20046;-74
2023/05/19 07:10:24;;;;;;;162.98;155.75;;;20.90;95.80;;;;;;4988664;28;20120;-73
2023/05/19 07:12:50;;;;;;;163.60;156.35;;;20.80;95.10;;;;;;4987140;28;20038;-74
2023/05/19 07:15:15;;;;;;;125.45;119.47;;;21.00;95.70;;;;;;4989409;28;20053;-73
2023/05/19 07:17:41;;;;;;;129.18;123.50;;;21.30;95.60;;;;;;4976113;28;20042;-73
2023/05/19 07:20:10;;;;;;;166.32;158.85;;;21.50;94.60;;;;;;4983320;28;20049;-74
2023/05/19 07:22:37;;;;;;;92.47;88.03;;;21.80;93.60;;;;;;4989973;28;20049;-73
2023/05/19 07:25:03;;;;;;;102.40;97.43;;;21.50;88.30;;;;;;4989626;28;20054;-74
2023/05/19 07:27:28;;;;;;;168.68;160.63;;;21.10;85.70;;;;;;4988420;28;20482;-74
2023/05/19 07:29:54;;;;;;;105.00;99.40;;;21.10;90.90;;;;;;4988408;28;20065;-73
2023/05/19 07:32:19;;;;;;;89.32;85.10;;;21.50;90.80;;;;;;4986206;28;20046;-74
2023/05/19 07:34:45;;;;;;;86.35;82.10;;;21.60;88.50;;;;;;4989620;28;20053;-74
2023/05/19 07:37:11;;;;;;;92.70;88.60;;;21.70;89.00;;;;;;4969971;28;20398;-72
2023/05/19 07:39:36;;;;;;;121.35;115.50;;;21.70;86.60;;;;;;4988892;28;20078;-74
2023/05/19 07:42:02;;;;;;;95.45;90.93;;;20.90;82.90;;;;;;4989688;28;20038;-73
2023/05/19 07:44:30;;;;;;;67.10;63.47;;;20.10;87.20;;;;;;4985121;28;20077;-73
2023/05/19 07:46:55;;;;;;;51.40;48.88;;;19.40;85.70;;;;;;4968702;28;20039;-74
2023/05/19 07:49:21;;;;;;;65.60;62.28;;;18.60;89.00;;;;;;4983358;28;20533;-74
2023/05/19 07:51:47;;;;;;;46.45;43.80;;;18.00;90.50;;;;;;4970886;28;20737;-73
2023/05/19 07:54:12;;;;;;;111.35;106.28;;;17.70;91.70;;;;;;4984125;28;20081;-73
2023/05/19 07:56:38;;;;;;;80.95;76.93;;;17.60;92.10;;;;;;4986286;28;20041;-74
2023/05/19 07:59:04;;;;;;;91.53;87.30;;;17.40;91.60;;;;;;4989176;28;20049;-74
2023/05/19 08:01:31;;;;;;;62.55;59.30;;;17.30;91.60;;;;;;4982192;28;20557;-73
2023/05/19 08:03:57;;;;;;;39.63;37.22;;;17.20;90.80;;;;;;4988750;28;20050;-74
2023/05/19 08:06:24;;;;;;;111.72;106.63;;;17.00;91.80;;;;;;4983685;28;20053;-73
2023/05/19 08:08:50;;;;;;;84.00;80.15;;;16.90;93.70;;;;;;4988936;28;20125;-74
2023/05/19 08:11:15;;;;;;;100.53;95.90;;;16.90;93.20;;;;;;4987599;28;20128;-73
2023/05/19 08:13:41;;;;;;;87.68;83.53;;;16.90;91.90;;;;;;4979580;28;20132;-74
2023/05/19 08:16:07;;;;;;;40.05;37.58;;;16.80;91.70;;;;;;4987465;28;20576;-73
2023/05/19 08:18:32;;;;;;;63.55;60.22;;;16.70;93.40;;;;;;4988057;28;20081;-73
2023/05/19 08:20:58;;;;;;;32.70;30.60;;;16.90;94.00;;;;;;4988165;28;20137;-73
2023/05/19 08:23:23;;;;;;;86.32;82.07;;;17.50;93.50;;;;;;4988219;28;20121;-73
2023/05/19 08:25:49;;;;;;;73.82;70.28;;;18.20;91.50;;;;;;4970271;28;20124;-74
2023/05/19 08:28:15;;;;;;;63.20;59.92;;;18.70;90.30;;;;;;4972792;28;20047;-73
2023/05/19 08:30:40;;;;;;;86.55;82.60;;;18.90;90.20;;;;;;4985669;28;20052;-73
2023/05/19 08:33:07;;;;;;;43.92;41.55;;;19.10;87.50;;;;;;4988446;28;20593;-73
2023/05/19 08:35:33;;;;;;;69.18;65.85;;;19.00;87.20;;;;;;4986525;28;20045;-74
2023/05/19 08:37:58;;;;;;;85.05;81.07;;;19.00;87.20;;;;;;4982753;28;20480;-73
2023/05/19 08:40:26;;;;;;;67.78;64.13;;;19.20;87.30;;;;;;4983556;28;20038;-75
2023/05/19 08:42:52;;;;;;;35.33;33.30;;;19.50;85.40;;;;;;4984915;28;20050;-73
2023/05/19 08:45:18;;;;;;;60.20;57.15;;;19.60;79.50;;;;;;4967500;28;20045;-74
2023/05/19 08:47:48;;;;;;;108.10;102.70;;;19.70;85.00;;;;;;4987569;28;20061;-74
2023/05/19 08:50:20;;;;;;;45.30;42.92;;;20.00;85.30;;;;;;4971646;28;20065;-73
2023/05/19 08:52:54;;;;;;;66.32;63.05;;;20.40;83.00;;;;;;4988958;28;20463;-74
2023/05/19 08:55:35;;;;;;;49.50;46.85;;;20.50;83.60;;;;;;4987270;28;20534;-74
2023/05/19 08:58:03;;;;;;;17.67;15.85;;;20.70;85.30;;;;;;4987931;28;20061;-75
2023/05/19 09:00:29;;;;;;;17.83;16.15;;;20.80;78.80;;;;;;4987597;28;20038;-73
2023/05/19 09:02:55;;;;;;;18.45;17.23;;;20.40;75.80;;;;;;4978626;28;20054;-73
2023/05/19 09:05:22;;;;;;;55.05;52.25;;;20.00;76.50;;;;;;4988125;28;20407;-73
2023/05/19 09:07:48;;;;;;;15.73;14.68;;;19.70;76.80;;;;;;4974990;28;20034;-74
2023/05/19 09:10:15;;;;;;;18.90;17.50;;;19.50;76.70;;;;;;4986463;28;20038;-73
2023/05/19 09:12:45;;;;;;;25.02;23.33;;;19.70;79.40;;;;;;4988578;28;20379;-74
2023/05/19 09:15:12;;;;;;;34.08;32.13;;;19.90;77.10;;;;;;4987597;28;20046;-73
2023/05/19 09:17:38;;;;;;;13.93;12.80;;;20.10;80.60;;;;;;4988365;28;20099;-73
2023/05/19 09:20:11;;;;;;;14.45;13.43;;;20.20;75.10;;;;;;4987206;28;20100;-73
2023/05/19 09:22:46;;;;;;;13.27;11.90;;;20.10;75.20;;;;;;4981592;28;20467;-73
2023/05/19 09:25:25;;;;;;;13.90;12.48;;;20.20;76.80;;;;;;4983821;28;20563;-73
2023/05/19 09:27:52;;;;;;;40.47;38.22;;;20.20;74.80;;;;;;4983290;28;20177;-74
2023/05/19 09:30:18;;;;;;;16.50;15.00;;;20.20;77.50;;;;;;4988474;28;20119;-74
2023/05/19 09:32:45;;;;;;;20.40;18.95;;;20.20;74.70;;;;;;4986863;28;20443;-74
2023/05/19 09:35:16;;;;;;;18.65;17.20;;;20.10;76.20;;;;;;4987985;28;20046;-74
2023/05/19 09:37:42;;;;;;;13.70;12.40;;;20.20;73.30;;;;;;4989600;28;20482;-73
2023/05/19 09:40:09;;;;;;;15.68;14.27;;;20.20;75.10;;;;;;4983913;28;20053;-74
2023/05/19 09:42:39;;;;;;;14.73;13.63;;;20.10;73.90;;;;;;4978289;28;20054;-73
2023/05/19 09:45:06;;;;;;;13.35;12.05;;;19.80;72.20;;;;;;4987446;28;20042;-74
2023/05/19 09:47:40;;;;;;;16.50;15.25;;;19.50;71.00;;;;;;4983873;28;20046;-73
2023/05/19 09:50:10;;;;;;;15.93;14.40;;;19.10;73.30;;;;;;4985194;28;20613;-73
2023/05/19 09:52:43;;;;;;;40.58;38.17;;;19.00;74.80;;;;;;4987936;28;20049;-72
2023/05/19 09:55:11;;;;;;;26.95;25.00;;;19.00;75.80;;;;;;4985170;28;20097;-74
2023/05/19 09:57:38;;;;;;;26.95;25.02;;;19.00;73.80;;;;;;4987150;28;20065;-73
2023/05/19 10:00:13;;;;;;;13.20;11.93;;;19.10;74.30;;;;;;4975713;28;20052;-74
2023/05/19 10:02:42;;;;;;;;;;;19.20;72.30;;;;;;4963396;28;20065;-73
2023/05/19 10:05:19;;;;;;;43.45;41.08;;;19.30;74.10;;;;;;4986694;28;19925;-74
2023/05/19 10:07:54;;;;;;;85.45;81.40;;;19.40;76.40;;;;;;4985818;28;20038;-74
2023/05/19 10:10:21;;;;;;;12.18;11.07;;;19.60;78.50;;;;;;4984193;28;20085;-73
2023/05/19 10:12:49;;;;;;;50.85;47.97;;;19.60;72.20;;;;;;4986611;28;20070;-73
2023/05/19 10:15:18;;;;;;;42.58;40.30;;;19.60;75.70;;;;;;4985085;28;20061;-73
2023/05/19 10:17:44;;;;;;;49.53;46.63;;;19.60;76.80;;;;;;4980049;28;20368;-73
2023/05/19 10:20:13;;;;;;;22.40;20.80;;;19.80;78.80;;;;;;4981371;28;20100;-73
2023/05/19 10:22:40;;;;;;;13.98;12.68;;;19.90;75.40;;;;;;4985250;28;20057;-73
2023/05/19 10:25:07;;;;;;;15.45;14.15;;;19.80;71.80;;;;;;5002160;28;20042;-74
2023/05/19 10:27:36;;;;;;;27.45;25.48;;;19.50;71.00;;;;;;4986003;28;20057;-73
2023/05/19 10:30:12;;;;;;;15.20;13.80;;;19.40;75.20;;;;;;4982536;28;20132;-74
2023/05/19 10:32:41;;;;;;;15.18;12.93;;;19.50;75.00;;;;;;4984252;28;20398;-74
2023/05/19 10:35:09;;;;;;;17.63;16.33;;;19.60;74.50;;;;;;4974965;28;20046;-73
2023/05/19 10:37:50;;;;;;;26.17;24.42;;;19.60;73.60;;;;;;4987185;28;20046;-74
2023/05/19 10:40:29;;;;;;;22.80;20.90;;;19.60;72.90;;;;;;4980488;28;20108;-73
2023/05/19 10:43:16;;;;;;;39.17;36.92;;;19.70;73.30;;;;;;4976561;28;20042;-74
2023/05/19 10:45:48;;;;;;;20.20;18.70;;;19.80;73.60;;;;;;4980584;28;20149;-74
2023/05/19 10:48:19;;;;;;;27.05;25.02;;;19.70;72.20;;;;;;4966888;28;20056;-74
2023/05/19 10:50:45;;;;;;;24.02;22.42;;;19.60;73.80;;;;;;4972125;28;20574;-74
2023/05/19 10:53:19;;;;;;;26.77;25.10;;;19.80;73.40;;;;;;4982145;28;20038;-73
2023/05/19 10:55:54;;;;;;;21.73;20.25;;;20.00;74.50;;;;;;4982906;28;20042;-73
2023/05/19 10:58:44;;;;;;;24.55;23.05;;;20.30;66.60;;;;;;4976484;28;20789;-74
2023/05/19 11:01:23;;;;;;;17.45;16.10;;;20.20;64.10;;;;;;4958905;28;20062;-75
2023/05/19 11:03:55;;;;;;;19.23;18.00;;;20.20;68.20;;;;;;4962435;28;20446;-75
2023/05/19 11:06:30;;;;;;;16.92;15.65;;;20.40;67.10;;;;;;4976044;28;20046;-73
2023/05/19 11:09:00;;;;;;;17.35;15.85;;;20.60;66.00;;;;;;4973457;28;20047;-74
2023/05/19 11:11:42;;;;;;;19.77;18.20;;;20.60;65.50;;;;;;4976207;28;20045;-73
2023/05/19 11:14:10;;;;;;;18.75;17.38;;;20.70;64.50;;;;;;4978417;28;20152;-74
2023/05/19 11:16:36;;;;;;;13.13;12.13;;;20.60;64.20;;;;;;4979435;28;20040;-73
2023/05/19 11:19:01;;;;;;;24.17;22.42;;;20.60;66.50;;;;;;4963459;28;20491;-73
2023/05/19 11:21:47;;;;;;;25.77;24.02;;;20.70;63.00;;;;;;4979195;28;20487;-74
2023/05/19 11:24:36;;;;;;;18.23;16.80;;;20.60;60.20;;;;;;4981708;28;20423;-73
2023/05/19 11:27:22;;;;;;;27.15;25.40;;;20.40;65.80;;;;;;4986369;28;20493;-73
2023/05/19 11:29:48;;;;;;;19.08;17.77;;;20.50;62.30;;;;;;4985997;28;20104;-74
2023/05/19 11:32:15;;;;;;;23.67;22.00;;;20.70;63.10;;;;;;4984268;28;20157;-73
2023/05/19 11:34:40;;;;;;;23.58;22.13;;;20.70;62.70;;;;;;4986211;28;20403;-74
2023/05/19 11:37:07;;;;;;;21.05;19.55;;;20.60;61.80;;;;;;4987199;28;20053;-74
2023/05/19 11:39:33;;;;;;;23.52;22.02;;;20.70;63.40;;;;;;4971542;28;20126;-74
2023/05/19 11:41:59;;;;;;;20.80;19.40;;;20.80;61.30;;;;;;4981881;28;20042;-74
2023/05/19 11:44:24;;;;;;;23.35;21.83;;;20.90;62.60;;;;;;4985485;28;20038;-74
2023/05/19 11:46:50;;;;;;;26.60;24.90;;;21.00;61.40;;;;;;4969111;28;20049;-74
2023/05/19 11:49:16;;;;;;;28.48;26.88;;;20.90;60.40;;;;;;4969144;28;20118;-74
2023/05/19 11:51:45;;;;;;;25.38;23.48;;;20.90;59.80;;;;;;4973786;28;20046;-74
2023/05/19 11:54:11;;;;;;;29.75;28.05;;;20.80;59.10;;;;;;4965337;28;20149;-74
2023/05/19 11:56:41;;;;;;;31.20;29.35;;;20.70;59.90;;;;;;4984262;28;20078;-74
2023/05/19 11:59:07;;;;;;;21.70;19.88;;;20.90;59.40;;;;;;4984951;28;20148;-74
2023/05/19 12:01:34;;;;;;;33.55;31.08;;;20.80;59.80;;;;;;4988442;28;20061;-74
2023/05/19 12:04:00;;;;;;;26.50;24.80;;;20.80;60.10;;;;;;4986981;28;20380;-73
2023/05/19 12:06:27;;;;;;;35.72;33.63;;;20.80;58.70;;;;;;4987617;28;20053;-73
2023/05/19 12:08:55;;;;;;;25.17;23.45;;;20.90;60.80;;;;;;4986580;28;20057;-74
2023/05/19 12:11:22;;;;;;;27.48;25.95;;;21.00;60.10;;;;;;4978627;28;20038;-74
2023/05/19 12:13:49;;;;;;;27.42;25.48;;;21.20;61.60;;;;;;4986642;28;20375;-74
2023/05/19 12:16:19;;;;;;;17.85;16.55;;;21.50;61.70;;;;;;4988640;28;20049;-74
2023/05/19 12:18:45;;;;;;;25.17;23.58;;;21.60;61.50;;;;;;4987196;28;20042;-74
2023/05/19 12:21:11;;;;;;;26.52;24.52;;;21.90;61.70;;;;;;4986013;28;20046;-74
2023/05/19 12:23:37;;;;;;;17.73;16.63;;;22.00;60.50;;;;;;4982475;28;20422;-74
2023/05/19 12:26:03;;;;;;;24.88;23.38;;;21.90;57.70;;;;;;4988879;28;20112;-75
2023/05/19 12:28:30;;;;;;;23.25;21.70;;;21.90;61.60;;;;;;4986108;28;20463;-74